sensor_id;sensor_type;location;lat;lon;timestamp;P1;P2;P0
23240;PMS7003;11789;53.482;9.862;2023-02-08T00:00:07;48.50;40.25;25.75
23240;PMS7003;11789;53.482;9.862;2023-02-08T00:02:33;48.25;39.75;23.50
23240;PMS7003;11789;53.482;9.862;2023-02-08T00:04:59;53.25;46.75;27.00
23240;PMS7003;11789;53.482;9.862;2023-02-08T00:07:24;59.50;46.25;28.25
23240;PMS7003;11789;53.482;9.862;2023-02-08T00:09:49;55.50;47.00;28.25
23240;PMS7003;11789;53.482;9.862;2023-02-08T00:12:15;51.25;44.25;27.00
23240;PMS7003;11789;53.482;9.862;2023-02-08T00:14:40;62.50;48.00;28.00
23240;PMS7003;11789;53.482;9.862;2023-02-08T00:17:06;64.25;48.00;30.75
23240;PMS7003;11789;53.482;9.862;2023-02-08T00:19:31;56.75;47.25;30.50
23240;PMS7003;11789;53.482;9.862;2023-02-08T00:21:56;50.50;44.50;26.50
23240;PMS7003;11789;53.482;9.862;2023-02-08T00:24:22;59.25;46.50;28.75
23240;PMS7003;11789;53.482;9.862;2023-02-08T00:26:47;43.50;39.75;24.75
23240;PMS7003;11789;53.482;9.862;2023-02-08T00:29:13;45.50;44.00;26.25
23240;PMS7003;11789;53.482;9.862;2023-02-08T00:31:38;52.25;43.50;27.50
23240;PMS7003;11789;53.482;9.862;2023-02-08T00:34:04;52.75;43.25;29.00
23240;PMS7003;11789;53.482;9.862;2023-02-08T00:36:29;55.25;44.00;26.50
23240;PMS7003;11789;53.482;9.862;2023-02-08T00:38:54;61.25;46.75;26.75
23240;PMS7003;11789;53.482;9.862;2023-02-08T00:41:20;52.50;42.50;27.25
23240;PMS7003;11789;53.482;9.862;2023-02-08T00:43:45;43.50;39.00;27.25
23240;PMS7003;11789;53.482;9.862;2023-02-08T00:46:11;50.50;43.25;26.00
23240;PMS7003;11789;53.482;9.862;2023-02-08T00:48:36;49.25;43.50;28.25
23240;PMS7003;11789;53.482;9.862;2023-02-08T00:51:06;44.00;36.25;20.00
23240;PMS7003;11789;53.482;9.862;2023-02-08T00:53:34;42.25;37.00;24.50
23240;PMS7003;11789;53.482;9.862;2023-02-08T00:56:01;39.75;37.50;21.50
23240;PMS7003;11789;53.482;9.862;2023-02-08T00:58:27;53.25;43.00;26.00
23240;PMS7003;11789;53.482;9.862;2023-02-08T01:00:52;43.00;37.75;24.00
23240;PMS7003;11789;53.482;9.862;2023-02-08T01:03:21;37.00;35.75;25.50
23240;PMS7003;11789;53.482;9.862;2023-02-08T01:05:47;51.75;39.25;23.00
23240;PMS7003;11789;53.482;9.862;2023-02-08T01:08:13;49.75;43.50;26.00
23240;PMS7003;11789;53.482;9.862;2023-02-08T01:10:39;48.25;43.00;24.00
23240;PMS7003;11789;53.482;9.862;2023-02-08T01:13:04;36.50;34.50;18.25
23240;PMS7003;11789;53.482;9.862;2023-02-08T01:15:29;49.00;40.00;24.00
23240;PMS7003;11789;53.482;9.862;2023-02-08T01:17:55;42.00;41.75;26.75
23240;PMS7003;11789;53.482;9.862;2023-02-08T01:20:21;50.25;44.25;25.00
23240;PMS7003;11789;53.482;9.862;2023-02-08T01:22:48;45.75;40.75;27.50
23240;PMS7003;11789;53.482;9.862;2023-02-08T01:25:13;55.75;45.00;24.00
23240;PMS7003;11789;53.482;9.862;2023-02-08T01:27:39;46.00;39.00;24.00
23240;PMS7003;11789;53.482;9.862;2023-02-08T01:30:05;38.00;37.50;25.50
23240;PMS7003;11789;53.482;9.862;2023-02-08T01:32:31;48.25;40.50;24.00
23240;PMS7003;11789;53.482;9.862;2023-02-08T01:34:56;55.75;45.75;28.50
23240;PMS7003;11789;53.482;9.862;2023-02-08T01:37:22;46.00;42.50;26.25
23240;PMS7003;11789;53.482;9.862;2023-02-08T01:39:48;54.25;43.00;25.00
23240;PMS7003;11789;53.482;9.862;2023-02-08T01:42:14;45.50;41.25;27.50
23240;PMS7003;11789;53.482;9.862;2023-02-08T01:47:36;61.25;44.00;24.50
23240;PMS7003;11789;53.482;9.862;2023-02-08T01:50:02;47.25;39.75;25.50
23240;PMS7003;11789;53.482;9.862;2023-02-08T01:52:28;44.50;39.75;23.75
23240;PMS7003;11789;53.482;9.862;2023-02-08T01:54:56;39.75;35.50;23.25
23240;PMS7003;11789;53.482;9.862;2023-02-08T01:57:26;50.00;36.00;25.75
23240;PMS7003;11789;53.482;9.862;2023-02-08T01:59:53;53.50;43.00;26.50
23240;PMS7003;11789;53.482;9.862;2023-02-08T02:02:22;48.00;42.50;23.25
23240;PMS7003;11789;53.482;9.862;2023-02-08T02:04:50;51.00;38.75;23.00
23240;PMS7003;11789;53.482;9.862;2023-02-08T02:07:17;47.75;43.25;26.25
23240;PMS7003;11789;53.482;9.862;2023-02-08T02:12:27;50.25;42.50;27.50
23240;PMS7003;11789;53.482;9.862;2023-02-08T02:14:55;53.75;46.50;29.00
23240;PMS7003;11789;53.482;9.862;2023-02-08T02:17:20;49.50;41.75;27.00
23240;PMS7003;11789;53.482;9.862;2023-02-08T02:36:31;61.00;43.75;25.50
23240;PMS7003;11789;53.482;9.862;2023-02-08T02:44:57;50.00;41.50;25.25
23240;PMS7003;11789;53.482;9.862;2023-02-08T02:47:41;45.50;39.75;23.50
23240;PMS7003;11789;53.482;9.862;2023-02-08T02:53:17;52.00;44.25;25.75
23240;PMS7003;11789;53.482;9.862;2023-02-08T02:55:50;54.00;43.75;26.75
23240;PMS7003;11789;53.482;9.862;2023-02-08T02:58:26;49.25;46.00;26.50
23240;PMS7003;11789;53.482;9.862;2023-02-08T03:00:53;49.25;43.75;24.75
23240;PMS7003;11789;53.482;9.862;2023-02-08T03:03:27;52.50;41.25;25.50
23240;PMS7003;11789;53.482;9.862;2023-02-08T03:06:01;50.75;37.75;23.00
23240;PMS7003;11789;53.482;9.862;2023-02-08T03:11:36;47.25;44.50;22.25
23240;PMS7003;11789;53.482;9.862;2023-02-08T03:19:19;54.25;42.25;25.75
23240;PMS7003;11789;53.482;9.862;2023-02-08T03:21:53;44.00;41.00;27.00
23240;PMS7003;11789;53.482;9.862;2023-02-08T03:24:37;53.00;47.00;28.50
23240;PMS7003;11789;53.482;9.862;2023-02-08T03:38:10;62.00;49.75;29.50
23240;PMS7003;11789;53.482;9.862;2023-02-08T03:40:43;47.50;39.75;24.75
23240;PMS7003;11789;53.482;9.862;2023-02-08T03:46:26;55.00;44.00;28.00
23240;PMS7003;11789;53.482;9.862;2023-02-08T03:49:10;53.75;42.00;25.50
23240;PMS7003;11789;53.482;9.862;2023-02-08T03:51:40;50.00;44.25;25.25
23240;PMS7003;11789;53.482;9.862;2023-02-08T03:54:10;53.00;43.50;22.25
23240;PMS7003;11789;53.482;9.862;2023-02-08T03:56:48;56.50;42.50;25.50
23240;PMS7003;11789;53.482;9.862;2023-02-08T03:59:26;56.00;47.50;25.50
23240;PMS7003;11789;53.482;9.862;2023-02-08T04:02:00;57.50;45.50;28.25
23240;PMS7003;11789;53.482;9.862;2023-02-08T04:04:28;53.25;42.75;27.75
23240;PMS7003;11789;53.482;9.862;2023-02-08T04:06:58;51.50;45.50;25.00
23240;PMS7003;11789;53.482;9.862;2023-02-08T04:09:24;51.25;44.75;26.50
23240;PMS7003;11789;53.482;9.862;2023-02-08T04:11:49;63.00;47.50;29.00
23240;PMS7003;11789;53.482;9.862;2023-02-08T04:14:15;48.75;42.00;27.00
23240;PMS7003;11789;53.482;9.862;2023-02-08T04:16:40;61.50;47.00;28.50
23240;PMS7003;11789;53.482;9.862;2023-02-08T04:19:06;66.00;48.75;29.25
23240;PMS7003;11789;53.482;9.862;2023-02-08T04:21:31;53.00;44.50;28.50
23240;PMS7003;11789;53.482;9.862;2023-02-08T04:23:57;59.50;47.25;28.75
23240;PMS7003;11789;53.482;9.862;2023-02-08T04:26:22;49.75;45.25;29.00
23240;PMS7003;11789;53.482;9.862;2023-02-08T04:28:48;57.25;46.00;29.25
23240;PMS7003;11789;53.482;9.862;2023-02-08T04:31:13;56.00;46.25;28.75
23240;PMS7003;11789;53.482;9.862;2023-02-08T04:33:39;55.50;45.50;29.75
23240;PMS7003;11789;53.482;9.862;2023-02-08T04:36:04;60.25;50.00;29.50
23240;PMS7003;11789;53.482;9.862;2023-02-08T04:38:30;53.25;45.00;25.25
23240;PMS7003;11789;53.482;9.862;2023-02-08T04:40:55;60.25;46.75;30.25
23240;PMS7003;11789;53.482;9.862;2023-02-08T04:43:20;50.00;46.50;28.00
23240;PMS7003;11789;53.482;9.862;2023-02-08T04:45:48;58.50;48.75;29.50
23240;PMS7003;11789;53.482;9.862;2023-02-08T04:48:14;46.25;40.25;20.00
23240;PMS7003;11789;53.482;9.862;2023-02-08T04:50:40;56.25;47.25;28.50
23240;PMS7003;11789;53.482;9.862;2023-02-08T04:53:06;62.50;46.50;25.75
23240;PMS7003;11789;53.482;9.862;2023-02-08T04:55:31;57.00;48.50;28.50
23240;PMS7003;11789;53.482;9.862;2023-02-08T04:57:57;52.00;42.50;28.75
23240;PMS7003;11789;53.482;9.862;2023-02-08T05:00:22;51.50;46.25;29.75
23240;PMS7003;11789;53.482;9.862;2023-02-08T05:02:51;54.50;46.75;29.00
23240;PMS7003;11789;53.482;9.862;2023-02-08T05:05:17;59.75;47.50;29.00
23240;PMS7003;11789;53.482;9.862;2023-02-08T05:07:43;62.00;49.50;30.00
23240;PMS7003;11789;53.482;9.862;2023-02-08T05:10:08;69.50;49.25;29.75
23240;PMS7003;11789;53.482;9.862;2023-02-08T05:12:34;57.50;47.50;30.50
23240;PMS7003;11789;53.482;9.862;2023-02-08T05:14:59;62.25;48.75;30.00
23240;PMS7003;11789;53.482;9.862;2023-02-08T05:17:24;62.25;51.00;32.25
23240;PMS7003;11789;53.482;9.862;2023-02-08T05:19:50;66.75;52.75;31.00
23240;PMS7003;11789;53.482;9.862;2023-02-08T05:22:15;75.00;55.50;31.75
23240;PMS7003;11789;53.482;9.862;2023-02-08T05:24:41;64.50;53.00;31.25
23240;PMS7003;11789;53.482;9.862;2023-02-08T05:27:06;71.75;53.50;33.75
23240;PMS7003;11789;53.482;9.862;2023-02-08T05:29:31;68.75;51.50;29.50
23240;PMS7003;11789;53.482;9.862;2023-02-08T05:31:57;70.50;49.00;30.75
23240;PMS7003;11789;53.482;9.862;2023-02-08T05:34:22;65.25;50.00;31.75
23240;PMS7003;11789;53.482;9.862;2023-02-08T05:36:48;68.25;50.75;30.25
23240;PMS7003;11789;53.482;9.862;2023-02-08T05:39:13;66.50;50.50;33.00
23240;PMS7003;11789;53.482;9.862;2023-02-08T05:41:39;71.50;52.00;31.25
23240;PMS7003;11789;53.482;9.862;2023-02-08T05:44:04;69.25;51.50;33.75
23240;PMS7003;11789;53.482;9.862;2023-02-08T05:46:30;68.25;51.25;32.00
23240;PMS7003;11789;53.482;9.862;2023-02-08T05:48:55;77.00;57.00;32.25
23240;PMS7003;11789;53.482;9.862;2023-02-08T05:51:20;68.50;54.00;31.25
23240;PMS7003;11789;53.482;9.862;2023-02-08T05:53:46;65.75;53.25;30.75
23240;PMS7003;11789;53.482;9.862;2023-02-08T05:56:11;70.25;53.75;31.00
23240;PMS7003;11789;53.482;9.862;2023-02-08T05:58:37;73.00;56.75;32.75
23240;PMS7003;11789;53.482;9.862;2023-02-08T06:01:09;71.25;52.50;31.50
23240;PMS7003;11789;53.482;9.862;2023-02-08T06:03:36;66.75;56.50;32.25
23240;PMS7003;11789;53.482;9.862;2023-02-08T06:06:02;67.00;51.25;31.25
23240;PMS7003;11789;53.482;9.862;2023-02-08T06:08:28;56.50;49.50;31.50
23240;PMS7003;11789;53.482;9.862;2023-02-08T06:10:53;76.25;56.00;32.75
23240;PMS7003;11789;53.482;9.862;2023-02-08T06:13:19;67.25;52.75;30.25
23240;PMS7003;11789;53.482;9.862;2023-02-08T06:15:44;72.00;55.25;31.75
23240;PMS7003;11789;53.482;9.862;2023-02-08T06:18:11;74.75;54.00;32.00
23240;PMS7003;11789;53.482;9.862;2023-02-08T06:20:37;70.50;55.50;33.00
23240;PMS7003;11789;53.482;9.862;2023-02-08T06:23:03;66.00;51.25;29.00
23240;PMS7003;11789;53.482;9.862;2023-02-08T06:25:29;64.25;46.25;29.00
23240;PMS7003;11789;53.482;9.862;2023-02-08T06:27:54;58.50;48.00;27.25
23240;PMS7003;11789;53.482;9.862;2023-02-08T06:30:20;67.25;51.50;31.00
23240;PMS7003;11789;53.482;9.862;2023-02-08T06:32:45;65.75;53.00;32.00
23240;PMS7003;11789;53.482;9.862;2023-02-08T06:35:11;71.50;52.75;32.00
23240;PMS7003;11789;53.482;9.862;2023-02-08T06:37:37;69.50;51.75;31.50
23240;PMS7003;11789;53.482;9.862;2023-02-08T06:40:03;64.00;52.00;32.75
23240;PMS7003;11789;53.482;9.862;2023-02-08T06:42:29;73.25;54.75;30.00
23240;PMS7003;11789;53.482;9.862;2023-02-08T06:44:55;63.00;52.50;31.00
23240;PMS7003;11789;53.482;9.862;2023-02-08T06:47:22;65.50;53.25;32.00
23240;PMS7003;11789;53.482;9.862;2023-02-08T06:49:49;54.75;50.50;29.75
23240;PMS7003;11789;53.482;9.862;2023-02-08T06:52:15;66.50;52.75;33.00
23240;PMS7003;11789;53.482;9.862;2023-02-08T06:54:40;69.75;54.25;31.75
23240;PMS7003;11789;53.482;9.862;2023-02-08T06:57:06;67.25;54.00;31.50
23240;PMS7003;11789;53.482;9.862;2023-02-08T06:59:32;68.50;54.25;33.25
23240;PMS7003;11789;53.482;9.862;2023-02-08T07:01:58;67.25;53.00;31.50
23240;PMS7003;11789;53.482;9.862;2023-02-08T07:04:24;65.75;49.25;29.25
23240;PMS7003;11789;53.482;9.862;2023-02-08T07:06:49;65.50;51.25;30.50
23240;PMS7003;11789;53.482;9.862;2023-02-08T07:09:15;65.00;49.50;31.25
23240;PMS7003;11789;53.482;9.862;2023-02-08T07:11:41;67.00;54.75;30.50
23240;PMS7003;11789;53.482;9.862;2023-02-08T07:14:09;71.50;53.50;31.25
23240;PMS7003;11789;53.482;9.862;2023-02-08T07:16:36;70.75;54.75;32.25
23240;PMS7003;11789;53.482;9.862;2023-02-08T07:19:01;72.75;55.50;34.00
23240;PMS7003;11789;53.482;9.862;2023-02-08T07:21:27;65.50;50.75;32.25
23240;PMS7003;11789;53.482;9.862;2023-02-08T07:23:52;67.00;53.00;29.50
23240;PMS7003;11789;53.482;9.862;2023-02-08T07:26:18;75.00;58.25;32.50
23240;PMS7003;11789;53.482;9.862;2023-02-08T07:28:43;67.75;56.00;34.50
23240;PMS7003;11789;53.482;9.862;2023-02-08T07:31:10;70.25;56.50;33.00
23240;PMS7003;11789;53.482;9.862;2023-02-08T07:33:37;70.50;51.75;32.75
23240;PMS7003;11789;53.482;9.862;2023-02-08T07:36:03;68.75;55.00;32.25
23240;PMS7003;11789;53.482;9.862;2023-02-08T07:38:30;74.75;58.75;33.25
23240;PMS7003;11789;53.482;9.862;2023-02-08T07:41:01;78.25;56.25;32.25
23240;PMS7003;11789;53.482;9.862;2023-02-08T07:43:28;76.25;54.25;32.25
23240;PMS7003;11789;53.482;9.862;2023-02-08T07:45:54;68.25;57.00;32.50
23240;PMS7003;11789;53.482;9.862;2023-02-08T07:48:19;72.75;53.00;30.00
23240;PMS7003;11789;53.482;9.862;2023-02-08T07:50:45;77.25;57.50;34.25
23240;PMS7003;11789;53.482;9.862;2023-02-08T07:53:10;65.75;51.00;33.75
23240;PMS7003;11789;53.482;9.862;2023-02-08T07:55:36;66.75;49.50;32.25
23240;PMS7003;11789;53.482;9.862;2023-02-08T07:58:01;69.00;53.00;32.25
23240;PMS7003;11789;53.482;9.862;2023-02-08T08:00:26;69.25;55.25;32.25
23240;PMS7003;11789;53.482;9.862;2023-02-08T08:02:52;66.25;52.75;30.25
23240;PMS7003;11789;53.482;9.862;2023-02-08T08:05:18;66.25;51.50;31.25
23240;PMS7003;11789;53.482;9.862;2023-02-08T08:07:44;66.75;53.50;31.25
23240;PMS7003;11789;53.482;9.862;2023-02-08T08:10:10;64.25;52.25;31.00
23240;PMS7003;11789;53.482;9.862;2023-02-08T08:12:35;66.75;52.00;32.00
23240;PMS7003;11789;53.482;9.862;2023-02-08T08:15:00;69.50;53.75;34.00
23240;PMS7003;11789;53.482;9.862;2023-02-08T08:17:26;65.75;53.50;31.00
23240;PMS7003;11789;53.482;9.862;2023-02-08T08:19:51;70.50;53.25;31.25
23240;PMS7003;11789;53.482;9.862;2023-02-08T08:22:17;75.00;55.00;33.00
23240;PMS7003;11789;53.482;9.862;2023-02-08T08:24:42;69.75;54.25;32.50
23240;PMS7003;11789;53.482;9.862;2023-02-08T08:27:08;73.00;55.75;33.25
23240;PMS7003;11789;53.482;9.862;2023-02-08T08:29:34;72.00;56.00;33.25
23240;PMS7003;11789;53.482;9.862;2023-02-08T08:32:01;60.75;52.00;31.00
23240;PMS7003;11789;53.482;9.862;2023-02-08T08:34:27;68.75;56.25;34.25
23240;PMS7003;11789;53.482;9.862;2023-02-08T08:36:56;74.50;58.25;33.75
23240;PMS7003;11789;53.482;9.862;2023-02-08T08:39:22;72.25;55.25;32.00
23240;PMS7003;11789;53.482;9.862;2023-02-08T08:41:48;68.00;55.00;32.00
23240;PMS7003;11789;53.482;9.862;2023-02-08T08:44:13;68.00;54.75;32.50
23240;PMS7003;11789;53.482;9.862;2023-02-08T08:46:39;69.25;56.25;33.50
23240;PMS7003;11789;53.482;9.862;2023-02-08T08:49:04;65.50;53.00;32.00
23240;PMS7003;11789;53.482;9.862;2023-02-08T08:51:30;70.75;56.75;33.25
23240;PMS7003;11789;53.482;9.862;2023-02-08T08:54:02;71.25;52.75;31.50
23240;PMS7003;11789;53.482;9.862;2023-02-08T08:56:28;70.50;53.50;31.00
23240;PMS7003;11789;53.482;9.862;2023-02-08T08:58:53;65.00;51.75;30.25
23240;PMS7003;11789;53.482;9.862;2023-02-08T09:01:19;62.50;53.25;33.00
23240;PMS7003;11789;53.482;9.862;2023-02-08T09:03:44;67.25;55.00;32.00
23240;PMS7003;11789;53.482;9.862;2023-02-08T09:06:10;64.75;53.50;30.00
23240;PMS7003;11789;53.482;9.862;2023-02-08T09:08:35;67.33;52.00;30.33
23240;PMS7003;11789;53.482;9.862;2023-02-08T09:11:08;60.33;50.00;30.33
23240;PMS7003;11789;53.482;9.862;2023-02-08T09:13:35;63.00;50.67;31.00
23240;PMS7003;11789;53.482;9.862;2023-02-08T09:16:05;63.33;49.67;31.33
23240;PMS7003;11789;53.482;9.862;2023-02-08T09:18:33;64.33;50.67;32.33
23240;PMS7003;11789;53.482;9.862;2023-02-08T09:20:58;57.67;47.00;29.33
23240;PMS7003;11789;53.482;9.862;2023-02-08T09:23:29;60.33;48.33;29.67
23240;PMS7003;11789;53.482;9.862;2023-02-08T09:25:55;59.00;47.33;30.00
23240;PMS7003;11789;53.482;9.862;2023-02-08T09:28:20;58.00;47.00;30.67
23240;PMS7003;11789;53.482;9.862;2023-02-08T09:30:46;60.67;49.00;29.67
23240;PMS7003;11789;53.482;9.862;2023-02-08T09:33:11;58.33;46.00;28.67
23240;PMS7003;11789;53.482;9.862;2023-02-08T09:35:36;58.33;47.00;29.00
23240;PMS7003;11789;53.482;9.862;2023-02-08T09:38:02;54.67;45.33;29.00
23240;PMS7003;11789;53.482;9.862;2023-02-08T09:41:17;60.00;47.33;30.00
23240;PMS7003;11789;53.482;9.862;2023-02-08T09:43:41;55.00;45.33;28.33
23240;PMS7003;11789;53.482;9.862;2023-02-08T09:46:35;61.33;49.00;30.00
23240;PMS7003;11789;53.482;9.862;2023-02-08T09:49:05;59.00;45.67;28.00
23240;PMS7003;11789;53.482;9.862;2023-02-08T09:51:42;55.33;46.33;29.00
23240;PMS7003;11789;53.482;9.862;2023-02-08T09:54:19;59.67;48.67;29.00
23240;PMS7003;11789;53.482;9.862;2023-02-08T09:56:50;59.33;47.33;28.00
23240;PMS7003;11789;53.482;9.862;2023-02-08T09:59:24;57.67;46.00;29.00
23240;PMS7003;11789;53.482;9.862;2023-02-08T10:01:53;65.00;48.00;30.00
23240;PMS7003;11789;53.482;9.862;2023-02-08T10:06:54;60.33;46.00;27.67
23240;PMS7003;11789;53.482;9.862;2023-02-08T10:09:20;59.67;47.67;28.33
23240;PMS7003;11789;53.482;9.862;2023-02-08T10:11:55;61.33;50.33;29.33
23240;PMS7003;11789;53.482;9.862;2023-02-08T10:17:08;57.33;45.33;27.33
23240;PMS7003;11789;53.482;9.862;2023-02-08T10:29:01;59.33;46.00;27.00
23240;PMS7003;11789;53.482;9.862;2023-02-08T10:36:39;60.67;43.00;26.00
23240;PMS7003;11789;53.482;9.862;2023-02-08T10:39:17;32.00;28.00;16.67
23240;PMS7003;11789;53.482;9.862;2023-02-08T10:41:48;33.67;29.00;16.33
23240;PMS7003;11789;53.482;9.862;2023-02-08T10:47:12;29.67;28.67;17.00
23240;PMS7003;11789;53.482;9.862;2023-02-08T10:49:43;52.67;43.67;27.00
23240;PMS7003;11789;53.482;9.862;2023-02-08T10:52:11;56.00;42.67;26.00
23240;PMS7003;11789;53.482;9.862;2023-02-08T10:54:36;53.33;42.67;27.00
23240;PMS7003;11789;53.482;9.862;2023-02-08T10:57:08;62.33;46.67;27.00
23240;PMS7003;11789;53.482;9.862;2023-02-08T10:59:48;59.00;42.33;26.00
23240;PMS7003;11789;53.482;9.862;2023-02-08T11:02:28;58.67;46.00;27.67
23240;PMS7003;11789;53.482;9.862;2023-02-08T11:05:02;49.00;43.33;27.33
23240;PMS7003;11789;53.482;9.862;2023-02-08T11:07:32;50.67;43.00;26.00
23240;PMS7003;11789;53.482;9.862;2023-02-08T11:10:14;51.33;41.00;24.33
23240;PMS7003;11789;53.482;9.862;2023-02-08T11:12:41;51.33;42.67;26.00
23240;PMS7003;11789;53.482;9.862;2023-02-08T11:15:20;53.00;43.00;24.33
23240;PMS7003;11789;53.482;9.862;2023-02-08T11:17:51;39.67;36.00;24.33
23240;PMS7003;11789;53.482;9.862;2023-02-08T11:20:23;59.33;44.33;26.00
23240;PMS7003;11789;53.482;9.862;2023-02-08T11:22:55;51.00;41.00;25.67
23240;PMS7003;11789;53.482;9.862;2023-02-08T11:25:36;50.00;43.33;24.33
23240;PMS7003;11789;53.482;9.862;2023-02-08T11:28:03;51.33;40.33;24.33
23240;PMS7003;11789;53.482;9.862;2023-02-08T11:30:30;44.33;39.00;22.33
23240;PMS7003;11789;53.482;9.862;2023-02-08T11:33:17;47.33;39.67;22.00
23240;PMS7003;11789;53.482;9.862;2023-02-08T11:38:23;40.00;35.33;21.33
23240;PMS7003;11789;53.482;9.862;2023-02-08T11:40:52;35.00;35.00;18.00
23240;PMS7003;11789;53.482;9.862;2023-02-08T11:43:25;36.33;29.00;17.00
23240;PMS7003;11789;53.482;9.862;2023-02-08T11:45:51;34.00;28.33;17.00
23240;PMS7003;11789;53.482;9.862;2023-02-08T11:48:33;36.00;31.00;19.00
23240;PMS7003;11789;53.482;9.862;2023-02-08T11:51:11;41.67;36.00;19.33
23240;PMS7003;11789;53.482;9.862;2023-02-08T11:53:47;29.67;26.67;17.00
23240;PMS7003;11789;53.482;9.862;2023-02-08T11:56:48;36.33;29.33;18.67
23240;PMS7003;11789;53.482;9.862;2023-02-08T11:59:20;39.00;31.00;17.67
23240;PMS7003;11789;53.482;9.862;2023-02-08T12:01:48;39.67;31.33;19.00
23240;PMS7003;11789;53.482;9.862;2023-02-08T12:04:14;38.00;32.33;15.67
23240;PMS7003;11789;53.482;9.862;2023-02-08T12:09:22;38.67;33.00;18.67
23240;PMS7003;11789;53.482;9.862;2023-02-08T12:20:13;25.00;21.33;13.00
23240;PMS7003;11789;53.482;9.862;2023-02-08T12:23:00;35.33;29.67;18.00
23240;PMS7003;11789;53.482;9.862;2023-02-08T12:25:42;33.67;29.33;17.33
23240;PMS7003;11789;53.482;9.862;2023-02-08T12:43:21;35.00;30.33;16.33
23240;PMS7003;11789;53.482;9.862;2023-02-08T12:51:23;40.67;29.00;14.67
23240;PMS7003;11789;53.482;9.862;2023-02-08T12:54:13;30.67;25.67;15.00
23240;PMS7003;11789;53.482;9.862;2023-02-08T12:56:44;28.00;24.00;16.33
23240;PMS7003;11789;53.482;9.862;2023-02-08T12:59:22;31.00;27.00;14.00
23240;PMS7003;11789;53.482;9.862;2023-02-08T13:01:55;2.67;2.67;0.00
23240;PMS7003;11789;53.482;9.862;2023-02-08T13:04:38;26.00;22.33;14.33
23240;PMS7003;11789;53.482;9.862;2023-02-08T13:07:22;24.33;22.00;15.00
23240;PMS7003;11789;53.482;9.862;2023-02-08T13:12:43;27.67;25.00;15.33
23240;PMS7003;11789;53.482;9.862;2023-02-08T13:15:22;31.67;25.33;15.67
23240;PMS7003;11789;53.482;9.862;2023-02-08T13:18:09;25.67;22.67;14.67
23240;PMS7003;11789;53.482;9.862;2023-02-08T13:20:44;19.00;18.67;11.67
23240;PMS7003;11789;53.482;9.862;2023-02-08T13:26:05;25.33;20.00;11.33
23240;PMS7003;11789;53.482;9.862;2023-02-08T13:28:35;18.33;11.33;8.00
23240;PMS7003;11789;53.482;9.862;2023-02-08T13:31:12;22.67;19.00;11.33
23240;PMS7003;11789;53.482;9.862;2023-02-08T13:33:49;22.00;19.25;11.50
23240;PMS7003;11789;53.482;9.862;2023-02-08T13:36:19;26.67;20.67;13.67
23240;PMS7003;11789;53.482;9.862;2023-02-08T13:38:49;24.33;21.00;13.00
23240;PMS7003;11789;53.482;9.862;2023-02-08T13:41:16;21.25;19.25;10.50
23240;PMS7003;11789;53.482;9.862;2023-02-08T13:43:52;20.33;16.00;10.67
23240;PMS7003;11789;53.482;9.862;2023-02-08T13:46:20;28.33;21.33;13.00
23240;PMS7003;11789;53.482;9.862;2023-02-08T13:48:50;19.75;16.75;9.25
23240;PMS7003;11789;53.482;9.862;2023-02-08T13:59:23;23.67;20.00;14.00
23240;PMS7003;11789;53.482;9.862;2023-02-08T14:04:46;17.33;14.00;10.33
23240;PMS7003;11789;53.482;9.862;2023-02-08T14:07:28;20.33;20.33;12.33
23240;PMS7003;11789;53.482;9.862;2023-02-08T14:15:42;22.00;17.50;9.00
23240;PMS7003;11789;53.482;9.862;2023-02-08T14:18:20;16.00;14.75;9.25
23240;PMS7003;11789;53.482;9.862;2023-02-08T14:20:58;21.25;17.50;10.75
23240;PMS7003;11789;53.482;9.862;2023-02-08T14:23:27;24.33;21.00;13.67
23240;PMS7003;11789;53.482;9.862;2023-02-08T14:25:55;25.67;25.00;14.00
23240;PMS7003;11789;53.482;9.862;2023-02-08T14:28:28;23.00;20.67;13.67
23240;PMS7003;11789;53.482;9.862;2023-02-08T14:30:57;21.33;17.33;9.67
23240;PMS7003;11789;53.482;9.862;2023-02-08T14:33:32;24.33;19.33;11.33
23240;PMS7003;11789;53.482;9.862;2023-02-08T14:36:02;21.00;16.25;13.00
23240;PMS7003;11789;53.482;9.862;2023-02-08T14:41:44;31.00;22.67;15.00
23240;PMS7003;11789;53.482;9.862;2023-02-08T14:52:41;21.33;20.00;14.00
23240;PMS7003;11789;53.482;9.862;2023-02-08T14:55:18;23.00;13.33;4.00
23240;PMS7003;11789;53.482;9.862;2023-02-08T14:57:54;33.00;27.00;14.00
23240;PMS7003;11789;53.482;9.862;2023-02-08T15:00:24;15.33;14.67;9.67
23240;PMS7003;11789;53.482;9.862;2023-02-08T15:02:53;28.33;22.67;13.33
23240;PMS7003;11789;53.482;9.862;2023-02-08T15:05:21;20.67;20.67;13.00
23240;PMS7003;11789;53.482;9.862;2023-02-08T15:07:58;30.67;23.67;16.00
23240;PMS7003;11789;53.482;9.862;2023-02-08T15:10:27;25.00;25.00;15.00
23240;PMS7003;11789;53.482;9.862;2023-02-08T15:12:56;28.33;24.00;14.00
23240;PMS7003;11789;53.482;9.862;2023-02-08T15:15:28;20.33;18.33;12.00
23240;PMS7003;11789;53.482;9.862;2023-02-08T15:17:58;23.00;20.00;13.67
23240;PMS7003;11789;53.482;9.862;2023-02-08T15:20:26;27.00;22.00;14.00
23240;PMS7003;11789;53.482;9.862;2023-02-08T15:25:27;26.33;21.67;13.67
23240;PMS7003;11789;53.482;9.862;2023-02-08T15:28:00;31.33;22.00;14.00
23240;PMS7003;11789;53.482;9.862;2023-02-08T15:30:32;26.33;22.67;14.33
23240;PMS7003;11789;53.482;9.862;2023-02-08T15:33:00;22.33;20.33;13.33
23240;PMS7003;11789;53.482;9.862;2023-02-08T15:35:27;24.67;18.67;8.67
23240;PMS7003;11789;53.482;9.862;2023-02-08T15:37:57;23.67;20.00;13.33
23240;PMS7003;11789;53.482;9.862;2023-02-08T15:40:27;20.67;19.00;13.00
23240;PMS7003;11789;53.482;9.862;2023-02-08T15:43:30;37.00;25.00;15.00
23240;PMS7003;11789;53.482;9.862;2023-02-08T15:46:33;19.67;14.67;9.33
23240;PMS7003;11789;53.482;9.862;2023-02-08T15:48:43;16.67;16.67;11.33
23240;PMS7003;11789;53.482;9.862;2023-02-08T15:51:11;20.00;18.67;14.00
23240;PMS7003;11789;53.482;9.862;2023-02-08T15:53:42;24.67;17.67;13.00
23240;PMS7003;11789;53.482;9.862;2023-02-08T15:56:10;27.33;21.67;10.33
23240;PMS7003;11789;53.482;9.862;2023-02-08T15:58:47;23.00;19.33;13.00
23240;PMS7003;11789;53.482;9.862;2023-02-08T16:01:18;19.00;18.00;12.00
23240;PMS7003;11789;53.482;9.862;2023-02-08T16:03:48;45.33;39.00;24.67
23240;PMS7003;11789;53.482;9.862;2023-02-08T16:06:20;25.00;23.67;14.33
23240;PMS7003;11789;53.482;9.862;2023-02-08T16:08:49;25.67;25.67;16.00
23240;PMS7003;11789;53.482;9.862;2023-02-08T16:11:32;36.00;30.00;16.33
23240;PMS7003;11789;53.482;9.862;2023-02-08T16:14:00;42.00;35.00;19.00
23240;PMS7003;11789;53.482;9.862;2023-02-08T16:19:00;31.00;28.33;18.00
23240;PMS7003;11789;53.482;9.862;2023-02-08T16:24:04;32.67;31.67;19.33
23240;PMS7003;11789;53.482;9.862;2023-02-08T16:29:51;40.33;32.67;22.00
23240;PMS7003;11789;53.482;9.862;2023-02-08T16:34:48;48.00;36.67;24.00